createdAt,value
2023-04-26T00:01:50.201Z,97148.25
2023-04-26T00:04:35.594Z,97149.66
2023-04-26T00:07:20.835Z,97153.44
2023-04-26T00:10:06.312Z,97147.22
2023-04-26T00:12:51.722Z,97155.06
2023-04-26T00:15:37.080Z,97143.66
2023-04-26T00:18:22.332Z,97141.72
2023-04-26T00:21:07.584Z,97146.63
2023-04-26T00:23:52.962Z,97153.19
2023-04-26T00:26:38.338Z,97149.88
2023-04-26T00:29:23.700Z,97155.06
2023-04-26T00:32:09.193Z,97157.25
2023-04-26T00:34:54.163Z,97155.63
2023-04-26T00:37:39.416Z,97163.25
2023-04-26T00:40:24.732Z,97164.31
2023-04-26T00:43:10.116Z,97147.44
2023-04-26T00:45:55.492Z,97145.28
2023-04-26T00:48:41.108Z,97148.25
2023-04-26T00:51:26.425Z,97152.88
2023-04-26T00:54:12.013Z,97149.94
2023-04-26T00:56:57.558Z,97148.53
2023-04-26T00:59:42.790Z,97152.34
2023-04-26T01:02:29.523Z,97154.50
2023-04-26T01:05:14.561Z,97149.34
2023-04-26T01:08:00.001Z,97156.97
2023-04-26T01:10:45.509Z,97143.94
2023-04-26T01:13:31.980Z,97150.44
2023-04-26T01:16:19.122Z,97143.38
2023-04-26T01:19:04.291Z,97145.00
2023-04-26T01:21:49.755Z,97145.81
2023-04-26T01:24:35.211Z,97152.59
2023-04-26T01:27:20.837Z,97152.88
2023-04-26T01:30:06.185Z,97152.34
2023-04-26T01:32:51.513Z,97145.53
2023-04-26T01:35:36.908Z,97150.69
2023-04-26T01:38:22.032Z,97150.44
2023-04-26T01:41:07.548Z,97156.41
2023-04-26T01:43:52.696Z,97149.63
2023-04-26T01:46:37.992Z,97153.16
2023-04-26T01:49:23.411Z,97155.06
2023-04-26T01:52:08.861Z,97153.16
2023-04-26T01:54:54.244Z,97156.13
2023-04-26T01:57:39.555Z,97150.44
2023-04-26T02:00:24.898Z,97151.78
2023-04-26T02:03:10.413Z,97139.88
2023-04-26T02:05:55.610Z,97147.72
2023-04-26T02:08:40.850Z,97133.06
2023-04-26T02:11:26.388Z,97138.50
2023-04-26T02:14:11.667Z,97136.31
2023-04-26T02:16:56.895Z,97130.63
2023-04-26T02:19:42.240Z,97128.72
2023-04-26T02:22:27.424Z,97131.97
2023-04-26T02:25:12.850Z,97135.25
2023-04-26T02:27:58.333Z,97135.25
2023-04-26T02:30:43.485Z,97128.16
2023-04-26T02:33:28.826Z,97127.63
2023-04-26T02:36:14.262Z,97129.53
2023-04-26T02:38:59.363Z,97135.50
2023-04-26T02:41:44.869Z,97132.78
2023-04-26T02:44:30.146Z,97136.88
2023-04-26T02:47:15.579Z,97139.31
2023-04-26T02:50:00.946Z,97137.97
2023-04-26T02:52:46.065Z,97139.31
2023-04-26T02:55:31.311Z,97134.16
2023-04-26T02:58:16.502Z,97134.19
2023-04-26T03:01:01.986Z,97133.59
2023-04-26T03:03:47.490Z,97137.41
2023-04-26T03:06:32.831Z,97141.19
2023-04-26T03:09:18.235Z,97133.59
2023-04-26T03:12:03.669Z,97130.88
2023-04-26T03:14:48.910Z,97140.66
2023-04-26T03:17:34.400Z,97133.59
2023-04-26T03:20:19.676Z,97126.25
2023-04-26T03:23:05.054Z,97132.78
2023-04-26T03:25:50.263Z,97130.06
2023-04-26T03:28:35.662Z,97134.44
2023-04-26T03:31:20.998Z,97121.09
2023-04-26T03:34:06.437Z,97120.28
2023-04-26T03:36:51.715Z,97127.06
2023-04-26T03:39:36.888Z,97127.09
2023-04-26T03:42:21.782Z,97126.00
2023-04-26T03:45:07.084Z,97128.16
2023-04-26T03:47:52.694Z,97136.31
2023-04-26T03:50:37.985Z,97127.09
2023-04-26T03:53:23.437Z,97128.72
2023-04-26T03:56:08.512Z,97119.19
2023-04-26T03:58:54.097Z,97123.28
2023-04-26T04:01:39.323Z,97113.50
2023-04-26T04:04:24.725Z,97104.81
2023-04-26T04:07:09.944Z,97107.25
2023-04-26T04:09:55.535Z,97113.50
2023-04-26T04:12:40.819Z,97116.47
2023-04-26T04:15:26.284Z,97114.56
2023-04-26T04:18:11.761Z,97118.91
2023-04-26T04:20:56.790Z,97120.56
2023-04-26T04:23:42.139Z,97119.19
2023-04-26T04:26:27.511Z,97131.13
2023-04-26T04:29:12.936Z,97135.25
2023-04-26T04:31:58.353Z,97133.06
2023-04-26T04:34:43.640Z,97142.56
2023-04-26T04:37:28.974Z,97133.34
2023-04-26T04:40:14.510Z,97144.72
2023-04-26T04:42:59.947Z,97142.56
2023-04-26T04:45:45.165Z,97145.53
2023-04-26T04:48:30.311Z,97146.34
2023-04-26T04:51:15.449Z,97148.81
2023-04-26T04:54:00.710Z,97143.09
2023-04-26T04:56:45.955Z,97144.19
2023-04-26T04:59:31.572Z,97152.88
2023-04-26T05:02:17.274Z,97156.13
2023-04-26T05:05:02.416Z,97156.13
2023-04-26T05:07:47.622Z,97159.91
2023-04-26T05:10:32.871Z,97160.47
2023-04-26T05:13:17.969Z,97167.25
2023-04-26T05:16:03.446Z,97174.06
2023-04-26T05:18:48.626Z,97173.50
2023-04-26T05:21:33.633Z,97174.06
2023-04-26T05:24:18.992Z,97179.22
2023-04-26T05:27:04.317Z,97182.47
2023-04-26T05:29:49.417Z,97175.13
2023-04-26T05:32:34.967Z,97172.38
2023-04-26T05:35:20.429Z,97168.38
2023-04-26T05:38:05.765Z,97167.28
2023-04-26T05:40:51.147Z,97161.81
2023-04-26T05:43:36.507Z,97166.72
2023-04-26T05:46:21.891Z,97159.94
2023-04-26T05:49:07.133Z,97167.28
2023-04-26T05:51:52.388Z,97169.69
2023-04-26T05:54:37.556Z,97174.88
2023-04-26T05:57:22.771Z,97180.56
2023-04-26T06:00:08.091Z,97193.06
2023-04-26T06:02:53.634Z,97192.50
2023-04-26T06:05:39.032Z,97204.53
2023-04-26T06:08:24.561Z,97202.09
2023-04-26T06:11:09.829Z,97202.28
2023-04-26T06:13:55.466Z,97189.84
2023-04-26T06:16:42.362Z,97197.44
2023-04-26T06:19:28.660Z,97200.47
2023-04-26T06:22:13.950Z,97196.94
2023-04-26T06:24:59.398Z,97208.06
2023-04-26T06:27:44.568Z,97201.28
2023-04-26T06:30:29.923Z,97208.88
2023-04-26T06:33:15.176Z,97210.19
2023-04-26T06:36:00.395Z,97209.63
2023-04-26T06:38:45.698Z,97205.88
2023-04-26T06:41:30.991Z,97205.31
2023-04-26T06:44:16.282Z,97200.19
2023-04-26T06:47:02.753Z,97207.81
2023-04-26T06:49:48.099Z,97205.63
2023-04-26T06:52:33.456Z,97210.78
2023-04-26T06:55:18.804Z,97203.69
2023-04-26T06:58:04.121Z,97197.72
2023-04-26T07:00:49.513Z,97201.50
2023-04-26T07:03:34.974Z,97200.44
2023-04-26T07:06:20.104Z,97200.69
2023-04-26T07:09:05.585Z,97202.09
2023-04-26T07:11:50.846Z,97201.00
2023-04-26T07:14:38.542Z,97199.38
2023-04-26T07:17:24.869Z,97199.09
2023-04-26T07:20:10.129Z,97202.09
2023-04-26T07:22:55.775Z,97196.38
2023-04-26T07:25:41.168Z,97195.03
2023-04-26T07:28:26.653Z,97194.75
2023-04-26T07:31:12.051Z,97190.38
2023-04-26T07:33:57.460Z,97181.16
2023-04-26T07:36:42.915Z,97179.75
2023-04-26T07:39:28.094Z,97172.47
2023-04-26T07:42:14.847Z,97172.69
2023-04-26T07:45:00.409Z,97161.31
2023-04-26T07:47:45.905Z,97158.31
2023-04-26T07:50:31.226Z,97165.66
2023-04-26T07:53:16.577Z,97160.75
2023-04-26T07:56:01.996Z,97162.66
2023-04-26T07:58:47.342Z,97158.59
2023-04-26T08:01:32.760Z,97155.88
2023-04-26T08:04:18.318Z,97156.72
2023-04-26T08:07:03.602Z,97154.00
2023-04-26T08:09:48.747Z,97159.72
2023-04-26T08:12:34.125Z,97152.34
2023-04-26T08:15:19.342Z,97149.91
2023-04-26T08:18:07.469Z,97160.53
2023-04-26T08:20:52.425Z,97158.59
2023-04-26T08:23:37.804Z,97152.63
2023-04-26T08:26:23.145Z,97158.91
2023-04-26T08:29:08.452Z,97160.50
2023-04-26T08:31:53.751Z,97152.66
2023-04-26T08:34:39.151Z,97150.97
2023-04-26T08:37:24.466Z,97150.19
2023-04-26T08:40:09.776Z,97150.19
2023-04-26T08:42:55.069Z,97152.88
2023-04-26T08:45:40.545Z,97149.91
2023-04-26T08:48:26.072Z,97154.53
2023-04-26T08:51:11.582Z,97151.56
2023-04-26T08:53:56.682Z,97160.53
2023-04-26T08:56:42.281Z,97155.59
2023-04-26T08:59:27.548Z,97153.97
2023-04-26T09:02:12.945Z,97155.59
2023-04-26T09:04:58.277Z,97151.81
2023-04-26T09:07:43.497Z,97159.44
2023-04-26T09:10:29.039Z,97150.69
2023-04-26T09:13:14.137Z,97152.34
2023-04-26T09:15:59.876Z,97155.09
2023-04-26T09:18:45.861Z,97155.91
2023-04-26T09:21:31.244Z,97161.88
2023-04-26T09:24:16.694Z,97152.38
2023-04-26T09:27:01.958Z,97159.41
2023-04-26T09:29:47.235Z,97157.78
2023-04-26T09:32:32.703Z,97157.81
2023-04-26T09:35:17.870Z,97159.13
2023-04-26T09:38:07.913Z,97163.75
2023-04-26T09:40:54.116Z,97158.31
2023-04-26T09:43:39.390Z,97155.59
2023-04-26T09:46:24.887Z,97148.84
2023-04-26T09:49:10.084Z,97152.34
2023-04-26T09:51:55.442Z,97155.09
2023-04-26T09:54:40.735Z,97143.66
2023-04-26T09:57:26.022Z,97150.13
2023-04-26T10:00:11.522Z,97140.94
2023-04-26T10:02:56.866Z,97147.19
2023-04-26T10:05:41.987Z,97136.03
2023-04-26T10:08:27.995Z,97138.72
2023-04-26T10:11:13.300Z,97140.38
2023-04-26T10:13:58.709Z,97136.53
2023-04-26T10:16:43.994Z,97134.09
2023-04-26T10:19:29.378Z,97141.94
2023-04-26T10:22:14.763Z,97126.50
2023-04-26T10:25:00.261Z,97120.50
2023-04-26T10:27:45.725Z,97119.19
2023-04-26T10:30:31.108Z,97113.72
2023-04-26T10:33:16.735Z,97105.06
2023-04-26T10:36:01.910Z,97106.19
2023-04-26T10:38:47.277Z,97103.91
2023-04-26T10:41:32.747Z,97100.13
2023-04-26T10:44:18.042Z,97100.94
2023-04-26T10:47:03.590Z,97096.31
2023-04-26T10:49:48.930Z,97092.25
2023-04-26T10:52:34.307Z,97085.69
2023-04-26T10:55:19.577Z,97085.41
2023-04-26T10:58:04.955Z,97084.03
2023-04-26T11:00:50.484Z,97083.84
2023-04-26T11:03:36.043Z,97079.50
2023-04-26T11:06:21.784Z,97084.94
2023-04-26T11:09:06.988Z,97085.53
2023-04-26T11:11:53.039Z,97085.78
2023-04-26T11:14:38.339Z,97083.06
2023-04-26T11:17:23.792Z,97087.16
2023-04-26T11:20:09.277Z,97079.56
2023-04-26T11:22:54.594Z,97084.69
2023-04-26T11:25:39.876Z,97082.81
2023-04-26T11:28:27.855Z,97081.75
2023-04-26T11:31:12.826Z,97082.00
2023-04-26T11:33:58.392Z,97086.91
2023-04-26T11:36:43.712Z,97072.22
2023-04-26T11:39:29.141Z,97076.31
2023-04-26T11:42:14.556Z,97071.97
2023-04-26T11:44:59.873Z,97064.06
2023-04-26T11:47:45.413Z,97064.06
2023-04-26T11:50:30.722Z,97049.69
2023-04-26T11:53:15.783Z,97055.63
2023-04-26T11:56:01.196Z,97055.38
2023-04-26T11:58:46.547Z,97049.69
2023-04-26T12:01:32.032Z,97043.44
2023-04-26T12:04:17.626Z,97041.28
2023-04-26T12:07:02.932Z,97038.53
2023-04-26T12:09:48.258Z,97033.06
2023-04-26T12:12:33.716Z,97035.81
2023-04-26T12:15:19.214Z,97040.41
2023-04-26T12:18:04.494Z,97034.16
2023-04-26T12:20:49.845Z,97035.03
2023-04-26T12:23:35.228Z,97033.13
2023-04-26T12:26:23.630Z,97035.84
2023-04-26T12:29:09.037Z,97043.72
2023-04-26T12:31:54.467Z,97035.00
2023-04-26T12:34:40.015Z,97034.19
2023-04-26T12:37:25.477Z,97028.19
2023-04-26T12:40:10.892Z,97022.19
2023-04-26T12:42:56.215Z,97021.63
2023-04-26T12:45:41.550Z,97036.34
2023-04-26T12:48:26.914Z,97032.22
2023-04-26T12:51:12.381Z,97027.06
2023-04-26T12:53:57.906Z,97022.91
2023-04-26T12:56:43.456Z,97022.69
2023-04-26T12:59:28.874Z,97022.16
2023-04-26T13:02:14.159Z,97019.91
2023-04-26T13:04:59.537Z,97020.53
2023-04-26T13:07:44.812Z,97015.94
2023-04-26T13:10:30.259Z,97017.78
2023-04-26T13:13:15.676Z,97015.38
2023-04-26T13:16:01.232Z,97007.16
2023-04-26T13:18:46.450Z,97015.53
2023-04-26T13:21:31.903Z,97011.28
2023-04-26T13:24:17.277Z,97014.81
2023-04-26T13:27:02.644Z,97005.22
2023-04-26T13:29:48.100Z,97005.16
2023-04-26T13:32:33.138Z,97002.44
2023-04-26T13:35:18.556Z,97004.94
2023-04-26T13:38:03.862Z,97002.66
2023-04-26T13:40:49.022Z,96999.56
2023-04-26T13:43:34.208Z,96994.59
2023-04-26T13:46:19.478Z,96984.00
2023-04-26T13:49:04.853Z,96979.72
2023-04-26T13:51:50.192Z,96985.03
2023-04-26T13:54:35.496Z,96979.66
2023-04-26T13:57:20.740Z,96982.34
2023-04-26T14:00:05.977Z,96984.50
2023-04-26T14:02:51.368Z,96986.72
2023-04-26T14:05:36.465Z,96977.94
2023-04-26T14:08:21.769Z,96982.91
2023-04-26T14:11:07.083Z,96978.41
2023-04-26T14:13:54.394Z,96985.28
2023-04-26T14:16:39.922Z,96978.03
2023-04-26T14:19:25.208Z,96980.41
2023-04-26T14:22:10.660Z,96978.22
2023-04-26T14:24:55.782Z,96980.75
2023-04-26T14:27:40.894Z,96983.34
2023-04-26T14:30:26.223Z,96989.66
2023-04-26T14:33:11.514Z,96989.50
2023-04-26T14:35:56.746Z,96992.72
2023-04-26T14:38:42.010Z,96988.34
2023-04-26T14:41:27.220Z,96984.13
2023-04-26T14:44:12.568Z,96978.31
2023-04-26T14:46:57.770Z,96995.66
2023-04-26T14:49:42.925Z,96986.94
2023-04-26T14:52:28.195Z,96986.31
2023-04-26T14:55:13.762Z,96972.25
2023-04-26T14:57:59.120Z,96973.59
2023-04-26T15:00:44.334Z,96980.31
2023-04-26T15:03:29.897Z,96980.28
2023-04-26T15:06:15.294Z,96970.88
2023-04-26T15:09:00.718Z,96976.47
2023-04-26T15:11:46.052Z,96977.09
2023-04-26T15:14:34.056Z,96978.63
2023-04-26T15:17:19.258Z,96971.56
2023-04-26T15:20:04.556Z,96969.75
2023-04-26T15:22:49.960Z,96977.91
2023-04-26T15:25:35.444Z,96975.00
2023-04-26T15:28:20.904Z,96964.16
2023-04-26T15:31:06.359Z,96978.13
2023-04-26T15:33:51.532Z,96966.41
2023-04-26T15:36:36.762Z,96963.13
2023-04-26T15:39:21.899Z,96964.91
2023-04-26T15:42:07.325Z,96974.75
2023-04-26T15:44:52.461Z,96964.19
2023-04-26T15:47:38.152Z,96967.91
2023-04-26T15:50:23.596Z,96962.47
2023-04-26T15:53:08.927Z,96970.13
2023-04-26T15:55:54.388Z,96972.69
2023-04-26T15:58:41.063Z,96967.97
2023-04-26T16:01:27.128Z,96968.75
2023-04-26T16:04:12.614Z,96971.38
2023-04-26T16:06:57.755Z,96962.31
2023-04-26T16:09:43.235Z,96965.06
2023-04-26T16:12:28.676Z,96971.31
2023-04-26T16:15:13.888Z,96969.38
2023-04-26T16:17:59.257Z,96966.19
2023-04-26T16:20:44.187Z,96976.00
2023-04-26T16:23:29.742Z,96972.41
2023-04-26T16:26:14.999Z,96971.09
2023-04-26T16:29:00.899Z,96978.16
2023-04-26T16:31:46.793Z,96980.00
2023-04-26T16:34:32.088Z,96976.00
2023-04-26T16:37:17.410Z,96971.34
2023-04-26T16:40:02.603Z,96968.59
2023-04-26T16:42:48.022Z,96966.44
2023-04-26T16:45:33.280Z,96966.81
2023-04-26T16:48:18.650Z,96964.13
2023-04-26T16:51:06.966Z,96970.84
2023-04-26T16:53:52.563Z,96974.38
2023-04-26T16:56:37.817Z,96976.56
2023-04-26T16:59:23.305Z,96974.34
2023-04-26T17:02:08.663Z,96971.81
2023-04-26T17:04:57.019Z,96971.59
2023-04-26T17:07:42.665Z,96959.13
2023-04-26T17:10:28.045Z,96961.38
2023-04-26T17:13:13.445Z,96967.91
2023-04-26T17:15:58.879Z,96976.91
2023-04-26T17:18:44.257Z,96973.59
2023-04-26T17:21:29.473Z,96972.81
2023-04-26T17:24:16.049Z,96980.41
2023-04-26T17:27:01.964Z,96987.97
2023-04-26T17:29:47.233Z,96990.41
2023-04-26T17:32:32.831Z,96990.69
2023-04-26T17:35:18.309Z,96987.47
2023-04-26T17:38:03.566Z,96989.94
2023-04-26T17:40:48.960Z,96998.34
2023-04-26T17:43:34.375Z,97000.25
2023-04-26T17:46:19.996Z,96995.38
2023-04-26T17:49:05.420Z,96990.50
2023-04-26T17:51:50.532Z,96996.19
2023-04-26T17:54:35.569Z,97000.25
2023-04-26T17:57:20.915Z,97006.78
2023-04-26T18:00:06.202Z,97003.81
2023-04-26T18:02:51.509Z,97010.56
2023-04-26T18:05:36.750Z,97014.09
2023-04-26T18:08:22.039Z,97013.00
2023-04-26T18:11:07.091Z,97009.47
2023-04-26T18:13:52.481Z,97013.03
2023-04-26T18:16:37.960Z,97018.97
2023-04-26T18:19:23.109Z,97016.25
2023-04-26T18:22:08.412Z,97013.81
2023-04-26T18:24:53.913Z,97020.63
2023-04-26T18:27:39.331Z,97027.66
2023-04-26T18:30:24.755Z,97021.13
2023-04-26T18:33:10.197Z,97027.63
2023-04-26T18:35:55.785Z,97023.56
2023-04-26T18:38:41.109Z,97038.53
2023-04-26T18:41:26.396Z,97033.34
2023-04-26T18:44:11.731Z,97038.81
2023-04-26T18:46:59.452Z,97038.81
2023-04-26T18:49:44.388Z,97040.44
2023-04-26T18:52:29.681Z,97044.28
2023-04-26T18:55:15.063Z,97039.94
2023-04-26T18:58:00.944Z,97038.03
2023-04-26T19:00:46.243Z,97046.44
2023-04-26T19:03:31.485Z,97047.78
2023-04-26T19:06:16.716Z,97052.41
2023-04-26T19:09:02.064Z,97050.78
2023-04-26T19:11:47.613Z,97052.09
2023-04-26T19:14:33.128Z,97064.63
2023-04-26T19:17:18.494Z,97061.34
2023-04-26T19:20:03.660Z,97066.53
2023-04-26T19:22:48.957Z,97068.16
2023-04-26T19:25:34.332Z,97076.56
2023-04-26T19:28:19.696Z,97072.78
2023-04-26T19:31:05.042Z,97077.66
2023-04-26T19:33:50.300Z,97075.22
2023-04-26T19:36:35.727Z,97074.94
2023-04-26T19:39:23.352Z,97084.41
2023-04-26T19:42:09.186Z,97086.59
2023-04-26T19:44:54.457Z,97085.00
2023-04-26T19:47:39.779Z,97088.81
2023-04-26T19:50:24.965Z,97096.13
2023-04-26T19:53:10.467Z,97094.75
2023-04-26T19:55:55.834Z,97091.81
2023-04-26T19:58:41.241Z,97094.22
2023-04-26T20:01:26.462Z,97102.09
2023-04-26T20:04:11.618Z,97100.75
2023-04-26T20:06:56.939Z,97100.41
2023-04-26T20:09:42.177Z,97104.81
2023-04-26T20:12:27.567Z,97108.06
2023-04-26T20:15:13.102Z,97107.00
2023-04-26T20:17:58.579Z,97105.91
2023-04-26T20:20:43.912Z,97109.13
2023-04-26T20:23:29.176Z,97103.19
2023-04-26T20:26:14.667Z,97102.88
2023-04-26T20:28:59.837Z,97110.00
2023-04-26T20:31:45.447Z,97109.13
2023-04-26T20:34:30.709Z,97107.28
2023-04-26T20:37:15.879Z,97104.28
2023-04-26T20:40:01.218Z,97116.47
2023-04-26T20:42:46.654Z,97106.69
2023-04-26T20:45:32.045Z,97109.97
2023-04-26T20:48:17.255Z,97111.03
2023-04-26T20:51:02.712Z,97116.50
2023-04-26T20:53:47.973Z,97118.13
2023-04-26T20:56:33.336Z,97110.25
2023-04-26T20:59:18.723Z,97110.78
2023-04-26T21:02:04.184Z,97125.19
2023-04-26T21:04:49.642Z,97118.13
2023-04-26T21:07:35.124Z,97129.53
2023-04-26T21:10:20.391Z,97128.72
2023-04-26T21:13:05.665Z,97128.16
2023-04-26T21:15:50.967Z,97125.22
2023-04-26T21:18:36.311Z,97122.19
2023-04-26T21:21:25.027Z,97119.47
2023-04-26T21:24:11.209Z,97121.69
2023-04-26T21:26:56.921Z,97129.25
2023-04-26T21:29:42.385Z,97125.44
2023-04-26T21:32:27.770Z,97121.66
2023-04-26T21:35:13.021Z,97115.13
2023-04-26T21:37:58.276Z,97122.47
2023-04-26T21:40:43.758Z,97115.94
2023-04-26T21:43:29.216Z,97114.06
2023-04-26T21:46:14.456Z,97112.94
2023-04-26T21:48:59.799Z,97113.50
2023-04-26T21:51:45.088Z,97115.41
2023-04-26T21:54:30.420Z,97119.19
2023-04-26T21:57:15.515Z,97118.13
2023-04-26T22:00:00.923Z,97121.09
2023-04-26T22:02:46.501Z,97124.66
2023-04-26T22:05:31.566Z,97127.34
2023-04-26T22:08:17.122Z,97117.84
2023-04-26T22:11:02.466Z,97133.59
2023-04-26T22:13:47.938Z,97121.91
2023-04-26T22:16:33.031Z,97119.19
2023-04-26T22:19:18.392Z,97122.19
2023-04-26T22:22:04.001Z,97126.28
2023-04-26T22:24:49.252Z,97121.09
2023-04-26T22:27:34.679Z,97122.72
2023-04-26T22:30:24.768Z,97120.59
2023-04-26T22:33:11.237Z,97123.03
2023-04-26T22:35:56.457Z,97120.56
2023-04-26T22:38:41.677Z,97127.91
2023-04-26T22:41:26.842Z,97132.25
2023-04-26T22:44:12.298Z,97137.16
2023-04-26T22:46:57.598Z,97146.34
2023-04-26T22:49:42.870Z,97152.06
2023-04-26T22:52:31.640Z,97158.31
2023-04-26T22:55:17.021Z,97158.34
2023-04-26T22:58:02.168Z,97161.84
2023-04-26T23:00:47.380Z,97162.66
2023-04-26T23:03:33.018Z,97164.06
2023-04-26T23:06:18.274Z,97160.81
2023-04-26T23:09:03.536Z,97171.41
2023-04-26T23:11:49.069Z,97170.00
2023-04-26T23:14:34.506Z,97160.50
2023-04-26T23:17:20.039Z,97166.47
2023-04-26T23:20:07.791Z,97173.03
2023-04-26T23:22:52.883Z,97164.88
2023-04-26T23:25:38.596Z,97173.28
2023-04-26T23:28:23.920Z,97168.13
2023-04-26T23:31:09.320Z,97168.66
2023-04-26T23:33:54.645Z,97176.81
2023-04-26T23:36:39.973Z,97169.50
2023-04-26T23:39:25.167Z,97168.91
2023-04-26T23:42:10.236Z,97178.44
2023-04-26T23:44:55.343Z,97178.16
2023-04-26T23:47:40.842Z,97177.06
2023-04-26T23:50:26.240Z,97175.72
2023-04-26T23:53:11.661Z,97180.06
2023-04-26T23:55:56.932Z,97181.44
2023-04-26T23:58:42.495Z,97179.25
